createdAt,value
2018-08-13T00:00:18.821Z,0.00
2018-08-13T00:01:18.798Z,0.00
2018-08-13T00:02:18.784Z,0.00
2018-08-13T00:03:18.777Z,0.00
2018-08-13T00:04:18.750Z,0.00
2018-08-13T00:05:18.733Z,0.00
2018-08-13T00:06:18.713Z,0.00
2018-08-13T00:07:18.697Z,0.00
2018-08-13T00:08:18.685Z,0.00
2018-08-13T00:09:18.687Z,0.00
2018-08-13T00:10:18.649Z,0.00
2018-08-13T00:11:18.653Z,0.00
2018-08-13T00:12:18.618Z,0.00
2018-08-13T00:13:18.600Z,0.00
2018-08-13T00:14:18.580Z,0.00
2018-08-13T00:15:18.580Z,0.00
2018-08-13T00:16:18.550Z,0.00
2018-08-13T00:17:18.535Z,0.00
2018-08-13T00:18:18.517Z,0.00
2018-08-13T00:19:18.501Z,0.00
2018-08-13T00:20:18.501Z,0.00
2018-08-13T00:21:18.470Z,0.00
2018-08-13T00:22:18.454Z,0.00
2018-08-13T00:23:18.436Z,0.00
2018-08-13T00:24:18.421Z,0.00
2018-08-13T00:25:18.414Z,0.00
2018-08-13T00:26:18.388Z,0.00
2018-08-13T00:27:18.370Z,0.00
2018-08-13T00:28:18.354Z,0.00
2018-08-13T00:29:18.337Z,0.00
2018-08-13T00:30:18.332Z,0.00
2018-08-13T00:31:18.303Z,0.00
2018-08-13T00:32:18.293Z,0.00
2018-08-13T00:33:18.270Z,0.00
2018-08-13T00:34:18.258Z,0.00
2018-08-13T00:35:18.259Z,0.00
2018-08-13T00:36:18.222Z,0.00
2018-08-13T00:37:18.206Z,0.00
2018-08-13T00:38:18.207Z,0.00
2018-08-13T00:39:18.181Z,0.00
2018-08-13T00:40:18.206Z,0.00
2018-08-13T00:41:18.172Z,0.00
2018-08-13T00:42:18.127Z,0.00
2018-08-13T00:43:18.104Z,0.00
2018-08-13T00:44:18.087Z,0.00
2018-08-13T00:45:18.075Z,0.00
2018-08-13T00:46:18.052Z,0.00
2018-08-13T00:47:18.054Z,0.00
2018-08-13T00:48:18.026Z,0.00
2018-08-13T00:49:18.014Z,0.00
2018-08-13T00:50:17.993Z,0.00
2018-08-13T00:51:17.983Z,0.00
2018-08-13T00:52:17.995Z,0.00
2018-08-13T00:53:17.944Z,0.00
2018-08-13T00:54:17.922Z,0.00
2018-08-13T00:55:17.906Z,0.00
2018-08-13T00:56:17.892Z,0.00
2018-08-13T00:57:17.875Z,0.00
2018-08-13T00:58:17.872Z,0.00
2018-08-13T00:59:17.841Z,0.00
2018-08-13T01:00:17.826Z,0.00
2018-08-13T01:01:17.806Z,0.00
2018-08-13T01:02:17.814Z,0.00
2018-08-13T01:03:17.774Z,0.00
2018-08-13T01:04:17.764Z,0.00
2018-08-13T01:05:17.740Z,0.00
2018-08-13T01:06:17.724Z,0.00
2018-08-13T01:07:17.708Z,0.00
2018-08-13T01:08:17.702Z,0.00
2018-08-13T01:09:17.676Z,0.00
2018-08-13T01:10:17.658Z,0.00
2018-08-13T01:11:17.640Z,0.00
2018-08-13T01:12:17.640Z,0.00
2018-08-13T01:13:17.608Z,0.00
2018-08-13T01:14:17.592Z,0.00
2018-08-13T01:15:17.575Z,0.00
2018-08-13T01:16:17.565Z,0.00
2018-08-13T01:17:17.541Z,0.00
2018-08-13T01:18:17.538Z,0.00
2018-08-13T01:19:17.506Z,0.00
2018-08-13T01:20:17.491Z,0.00
2018-08-13T01:21:17.475Z,0.00
2018-08-13T01:22:17.458Z,0.00
2018-08-13T01:23:17.448Z,0.00
2018-08-13T01:24:17.429Z,0.00
2018-08-13T01:25:17.408Z,0.00
2018-08-13T01:26:17.388Z,0.00
2018-08-13T01:27:17.378Z,0.00
2018-08-13T01:28:17.382Z,0.00
2018-08-13T01:29:17.344Z,0.00
2018-08-13T01:30:17.324Z,0.00
2018-08-13T01:31:17.305Z,0.00
2018-08-13T01:32:17.295Z,0.00
2018-08-13T01:33:27.214Z,0.00
2018-08-13T01:34:27.715Z,0.00
2018-08-13T01:35:26.740Z,0.00
2018-08-13T01:36:28.763Z,0.00
2018-08-13T01:37:17.207Z,0.00
2018-08-13T01:38:17.188Z,0.00
2018-08-13T01:39:17.187Z,0.00
2018-08-13T01:40:17.156Z,0.00
2018-08-13T01:41:17.145Z,0.00
2018-08-13T01:42:17.123Z,0.00
2018-08-13T01:43:17.106Z,0.00
2018-08-13T01:44:17.122Z,0.00
2018-08-13T01:45:17.071Z,0.00
2018-08-13T01:46:17.052Z,0.00
2018-08-13T01:47:17.039Z,0.00
2018-08-13T01:48:17.023Z,0.00
2018-08-13T01:49:17.004Z,0.00
2018-08-13T01:50:17.000Z,0.00
2018-08-13T01:51:16.969Z,0.00
2018-08-13T01:52:16.954Z,0.00
2018-08-13T01:53:16.944Z,0.00
2018-08-13T01:54:16.918Z,0.00
2018-08-13T01:55:16.906Z,0.00
2018-08-13T01:56:16.909Z,0.00
2018-08-13T01:57:16.874Z,0.00
2018-08-13T01:58:16.855Z,0.00
2018-08-13T01:59:16.843Z,0.00
2018-08-13T02:00:16.817Z,0.00
2018-08-13T02:01:16.816Z,0.00
2018-08-13T02:02:16.795Z,0.00
2018-08-13T02:03:16.768Z,0.00
2018-08-13T02:04:16.752Z,0.00
2018-08-13T02:05:16.739Z,0.00
2018-08-13T02:06:16.719Z,0.00
2018-08-13T02:07:16.731Z,0.00
2018-08-13T02:08:16.683Z,0.00
2018-08-13T02:09:16.674Z,0.00
2018-08-13T02:10:16.647Z,0.00
2018-08-13T02:11:16.634Z,0.00
2018-08-13T02:12:16.625Z,0.00
2018-08-13T02:13:16.614Z,0.00
2018-08-13T02:14:16.583Z,0.00
2018-08-13T02:15:16.566Z,0.00
2018-08-13T02:16:16.547Z,0.00
2018-08-13T02:17:16.531Z,0.00
2018-08-13T02:18:16.521Z,0.00
2018-08-13T02:19:16.508Z,0.00
2018-08-13T02:20:16.482Z,0.00
2018-08-13T02:21:16.462Z,0.00
2018-08-13T02:22:16.458Z,0.00
2018-08-13T02:23:16.442Z,0.00
2018-08-13T02:24:16.423Z,0.00
2018-08-13T02:25:16.398Z,0.00
2018-08-13T02:26:16.383Z,0.00
2018-08-13T02:27:16.362Z,0.00
2018-08-13T02:28:16.364Z,0.00
2018-08-13T02:29:16.330Z,0.00
2018-08-13T02:30:16.313Z,0.00
2018-08-13T02:31:16.298Z,0.00
2018-08-13T02:32:16.278Z,0.00
2018-08-13T02:33:16.259Z,0.00
2018-08-13T02:34:16.258Z,0.00
2018-08-13T02:35:16.232Z,0.00
2018-08-13T02:36:16.213Z,0.00
2018-08-13T02:37:16.197Z,0.00
2018-08-13T02:38:16.178Z,0.00
2018-08-13T02:39:16.258Z,0.00
2018-08-13T02:40:16.149Z,0.00
2018-08-13T02:41:16.124Z,0.00
2018-08-13T02:42:16.107Z,0.00
2018-08-13T02:43:16.090Z,0.00
2018-08-13T02:44:16.073Z,0.00
2018-08-13T02:45:16.074Z,0.00
2018-08-13T02:46:16.039Z,0.00
2018-08-13T02:47:16.023Z,0.00
2018-08-13T02:48:16.003Z,0.00
2018-08-13T02:49:15.989Z,0.00
2018-08-13T02:50:15.987Z,0.00
2018-08-13T02:51:15.959Z,0.00
2018-08-13T02:52:15.938Z,0.00
2018-08-13T02:53:15.925Z,0.00
2018-08-13T02:54:15.908Z,0.00
2018-08-13T02:55:15.893Z,0.00
2018-08-13T02:56:15.883Z,0.00
2018-08-13T02:57:15.857Z,0.00
2018-08-13T02:58:15.911Z,0.00
2018-08-13T02:59:15.817Z,0.00
2018-08-13T03:00:15.803Z,0.00
2018-08-13T03:01:15.803Z,0.00
2018-08-13T03:02:15.769Z,0.00
2018-08-13T03:03:15.757Z,0.00
2018-08-13T03:04:15.738Z,0.00
2018-08-13T03:05:15.719Z,0.00
2018-08-13T03:06:15.700Z,0.00
2018-08-13T03:07:15.699Z,0.00
2018-08-13T03:08:15.668Z,0.00
2018-08-13T03:09:15.652Z,0.00
2018-08-13T03:10:15.634Z,0.00
2018-08-13T03:11:15.616Z,0.00
2018-08-13T03:12:15.617Z,0.00
2018-08-13T03:13:15.585Z,0.00
2018-08-13T03:14:15.571Z,0.00
2018-08-13T03:15:15.552Z,0.00
2018-08-13T03:16:15.537Z,0.00
2018-08-13T03:17:15.515Z,0.00
2018-08-13T03:18:15.514Z,0.00
2018-08-13T03:19:15.483Z,0.00
2018-08-13T03:20:15.462Z,0.00
2018-08-13T03:21:15.448Z,0.00
2018-08-13T03:22:15.435Z,0.00
2018-08-13T03:23:15.415Z,0.00
2018-08-13T03:24:15.411Z,0.00
2018-08-13T03:25:15.385Z,0.00
2018-08-13T03:26:15.366Z,0.00
2018-08-13T03:27:15.347Z,0.00
2018-08-13T03:28:15.333Z,0.00
2018-08-13T03:29:15.325Z,0.00
2018-08-13T03:30:15.297Z,0.00
2018-08-13T03:31:15.281Z,0.00
2018-08-13T03:32:15.369Z,0.00
2018-08-13T03:33:15.248Z,0.00
2018-08-13T03:34:15.248Z,0.00
2018-08-13T03:35:15.213Z,0.00
2018-08-13T03:36:15.197Z,0.00
2018-08-13T03:37:15.187Z,0.00
2018-08-13T03:38:15.166Z,0.00
2018-08-13T03:39:15.157Z,0.00
2018-08-13T03:40:15.133Z,0.00
2018-08-13T03:41:15.114Z,0.00
2018-08-13T03:42:15.096Z,0.00
2018-08-13T03:43:15.090Z,0.00
2018-08-13T03:44:15.084Z,0.00
2018-08-13T03:45:15.052Z,4.00
2018-08-13T03:46:15.034Z,0.00
2018-08-13T03:47:15.014Z,0.00
2018-08-13T03:48:14.996Z,4.00
2018-08-13T03:49:14.991Z,0.00
2018-08-13T03:50:14.967Z,4.00
2018-08-13T03:51:14.949Z,4.00
2018-08-13T03:52:14.934Z,8.00
2018-08-13T03:53:14.913Z,8.00
2018-08-13T03:54:14.934Z,8.00
2018-08-13T03:55:14.879Z,8.00
2018-08-13T03:56:14.866Z,12.00
2018-08-13T03:57:14.847Z,12.00
2018-08-13T03:58:14.833Z,12.00
2018-08-13T03:59:14.835Z,16.00
2018-08-13T04:00:14.800Z,20.00
2018-08-13T04:01:14.785Z,20.00
2018-08-13T04:02:14.769Z,24.00
2018-08-13T04:03:14.747Z,24.00
2018-08-13T04:04:14.736Z,28.00
2018-08-13T04:05:14.746Z,32.00
2018-08-13T04:06:14.695Z,32.00
2018-08-13T04:07:14.690Z,36.00
2018-08-13T04:08:14.668Z,36.00
2018-08-13T04:09:14.651Z,40.00
2018-08-13T04:10:14.640Z,40.00
2018-08-13T04:11:14.628Z,40.00
2018-08-13T04:12:14.615Z,44.00
2018-08-13T04:13:14.588Z,44.00
2018-08-13T04:14:14.567Z,52.00
2018-08-13T04:15:14.549Z,56.00
2018-08-13T04:16:14.552Z,60.00
2018-08-13T04:17:14.518Z,64.00
2018-08-13T04:18:14.502Z,68.00
2018-08-13T04:19:14.485Z,76.00
2018-08-13T04:20:14.468Z,88.00
2018-08-13T04:21:14.490Z,92.00
2018-08-13T04:22:14.440Z,104.00
2018-08-13T04:23:14.421Z,116.00
2018-08-13T04:24:14.405Z,128.00
2018-08-13T04:25:14.387Z,136.00
2018-08-13T04:26:14.380Z,140.00
2018-08-13T04:27:14.368Z,148.00
2018-08-13T04:28:14.344Z,156.00
2018-08-13T04:29:14.320Z,164.00
2018-08-13T04:30:14.304Z,180.00
2018-08-13T04:31:14.358Z,188.00
2018-08-13T04:32:14.353Z,184.00
2018-08-13T04:33:14.299Z,176.00
2018-08-13T04:34:14.264Z,164.00
2018-08-13T04:35:14.230Z,156.00
2018-08-13T04:36:14.220Z,144.00
2018-08-13T04:37:14.217Z,144.00
2018-08-13T04:38:14.174Z,144.00
2018-08-13T04:39:14.174Z,144.00
2018-08-13T04:40:14.143Z,148.00
2018-08-13T04:41:14.157Z,160.00
2018-08-13T04:42:14.130Z,164.00
2018-08-13T04:43:14.108Z,172.00
2018-08-13T04:44:14.103Z,196.00
2018-08-13T04:45:14.083Z,216.00
2018-08-13T04:46:14.067Z,244.00
2018-08-13T04:47:14.052Z,280.00
2018-08-13T04:48:14.040Z,304.00
2018-08-13T04:49:14.028Z,304.00
2018-08-13T04:50:14.020Z,296.00
2018-08-13T04:51:14.012Z,304.00
2018-08-13T04:52:13.974Z,340.00
2018-08-13T04:53:13.959Z,376.00
2018-08-13T04:54:13.946Z,408.00
2018-08-13T04:55:13.910Z,440.00
2018-08-13T04:56:13.885Z,480.00
2018-08-13T04:57:13.898Z,520.00
2018-08-13T04:58:13.883Z,568.00
2018-08-13T04:59:13.871Z,616.00
2018-08-13T05:00:13.849Z,660.00
2018-08-13T05:01:13.898Z,692.00
2018-08-13T05:02:13.811Z,724.00
2018-08-13T05:03:13.802Z,740.00
2018-08-13T05:04:13.772Z,728.00
2018-08-13T05:05:13.768Z,668.00
2018-08-13T05:06:13.783Z,604.00
2018-08-13T05:07:13.779Z,568.00
2018-08-13T05:08:13.729Z,552.00
2018-08-13T05:09:13.686Z,556.00
2018-08-13T05:10:13.699Z,600.00
2018-08-13T05:11:13.652Z,672.00
2018-08-13T05:12:13.623Z,732.00
2018-08-13T05:13:13.637Z,772.00
2018-08-13T05:14:13.629Z,816.00
2018-08-13T05:15:13.593Z,848.00
2018-08-13T05:16:13.587Z,836.00
2018-08-13T05:17:13.546Z,820.00
2018-08-13T05:18:13.544Z,852.00
2018-08-13T05:19:13.536Z,940.00
2018-08-13T05:20:13.501Z,1052.00
2018-08-13T05:21:13.525Z,1136.00
2018-08-13T05:22:13.531Z,1212.00
2018-08-13T05:23:13.454Z,1304.00
2018-08-13T05:24:13.467Z,1420.00
2018-08-13T05:25:13.457Z,1536.00
2018-08-13T05:26:13.403Z,1704.00
2018-08-13T05:27:13.387Z,1812.00
2018-08-13T05:28:13.378Z,1840.00
2018-08-13T05:29:13.399Z,1844.00
2018-08-13T05:30:13.365Z,1736.00
2018-08-13T05:31:13.359Z,1464.00
2018-08-13T05:32:13.295Z,1228.00
2018-08-13T05:33:13.298Z,1040.00
2018-08-13T05:34:13.267Z,872.00
2018-08-13T05:35:13.269Z,776.00
2018-08-13T05:36:13.236Z,752.00
2018-08-13T05:37:13.231Z,748.00
2018-08-13T05:38:13.263Z,692.00
2018-08-13T05:39:13.184Z,628.00
2018-08-13T05:40:13.179Z,532.00
2018-08-13T05:41:13.159Z,428.00
2018-08-13T05:42:13.153Z,360.00
2018-08-13T05:43:23.322Z,316.00
2018-08-13T05:44:13.098Z,300.00
2018-08-13T05:45:22.867Z,264.00
2018-08-13T05:46:23.370Z,252.00
2018-08-13T05:47:23.393Z,280.00
2018-08-13T05:48:23.420Z,360.00
2018-08-13T05:49:13.010Z,500.00
2018-08-13T05:50:12.993Z,612.00
2018-08-13T05:51:13.011Z,664.00
2018-08-13T05:52:12.964Z,724.00
2018-08-13T05:53:12.953Z,848.00
2018-08-13T05:54:12.937Z,1000.00
2018-08-13T05:55:12.911Z,1124.00
2018-08-13T05:56:12.897Z,1220.00
2018-08-13T05:57:12.891Z,1312.00
2018-08-13T05:58:12.860Z,1396.00
2018-08-13T05:59:12.845Z,1488.00
2018-08-13T06:00:12.830Z,1548.00
2018-08-13T06:01:12.813Z,1572.00
2018-08-13T06:02:12.809Z,1628.00
2018-08-13T06:03:12.892Z,1712.00
2018-08-13T06:04:12.769Z,1748.00
2018-08-13T06:05:12.745Z,1772.00
2018-08-13T06:06:12.730Z,1768.00
2018-08-13T06:07:12.714Z,1732.00
2018-08-13T06:08:12.706Z,1692.00
2018-08-13T06:09:12.692Z,1672.00
2018-08-13T06:10:12.661Z,1612.00
2018-08-13T06:11:12.676Z,1508.00
2018-08-13T06:12:12.630Z,1436.00
2018-08-13T06:13:12.629Z,1388.00
2018-08-13T06:14:12.593Z,1392.00
2018-08-13T06:15:12.581Z,1420.00
2018-08-13T06:16:12.564Z,1460.00
2018-08-13T06:17:12.551Z,1516.00
2018-08-13T06:18:12.608Z,1520.00
2018-08-13T06:19:12.526Z,1456.00
2018-08-13T06:20:12.500Z,1368.00
2018-08-13T06:21:12.480Z,1300.00
2018-08-13T06:22:12.467Z,1252.00
2018-08-13T06:23:12.457Z,1276.00
2018-08-13T06:24:12.482Z,1416.00
2018-08-13T06:25:12.418Z,1608.00
2018-08-13T06:26:12.396Z,1752.00
2018-08-13T06:27:12.386Z,1848.00
2018-08-13T06:28:12.427Z,1956.00
2018-08-13T06:29:12.347Z,2032.00
2018-08-13T06:30:12.380Z,2120.00
2018-08-13T06:31:12.317Z,2172.00
2018-08-13T06:32:12.298Z,2228.00
2018-08-13T06:33:12.286Z,2316.00
2018-08-13T06:34:12.263Z,2492.00
2018-08-13T06:35:12.259Z,2608.00
2018-08-13T06:36:12.231Z,2648.00
2018-08-13T06:37:12.267Z,2588.00
2018-08-13T06:38:12.202Z,2428.00
2018-08-13T06:39:12.181Z,2032.00
2018-08-13T06:40:12.192Z,1592.00
2018-08-13T06:41:12.165Z,1204.00
2018-08-13T06:42:12.134Z,1108.00
2018-08-13T06:43:12.116Z,1216.00
2018-08-13T06:44:12.099Z,1376.00
2018-08-13T06:45:12.105Z,1616.00
2018-08-13T06:46:12.068Z,1740.00
2018-08-13T06:47:12.059Z,1644.00
2018-08-13T06:48:12.038Z,1588.00
2018-08-13T06:49:12.035Z,1540.00
2018-08-13T06:50:12.046Z,1472.00
2018-08-13T06:51:11.988Z,1492.00
2018-08-13T06:52:11.975Z,1648.00
2018-08-13T06:53:11.961Z,1676.00
2018-08-13T06:54:11.956Z,1780.00
2018-08-13T06:55:11.923Z,1980.00
2018-08-13T06:56:11.917Z,2116.00
2018-08-13T06:57:11.881Z,2084.00
2018-08-13T06:58:11.867Z,1864.00
2018-08-13T06:59:11.858Z,1692.00
2018-08-13T07:00:11.834Z,1676.00
2018-08-13T07:01:11.831Z,1684.00
2018-08-13T07:02:11.809Z,1572.00
2018-08-13T07:03:11.786Z,1500.00
2018-08-13T07:04:11.767Z,1472.00
2018-08-13T07:05:11.758Z,1436.00
2018-08-13T07:06:11.745Z,1552.00
2018-08-13T07:07:11.732Z,1756.00
2018-08-13T07:08:11.702Z,1804.00
2018-08-13T07:09:11.686Z,1832.00
2018-08-13T07:10:11.668Z,1968.00
2018-08-13T07:11:11.653Z,2140.00
2018-08-13T07:12:11.647Z,2140.00
2018-08-13T07:13:11.620Z,2060.00
2018-08-13T07:14:21.962Z,2080.00
2018-08-13T07:15:11.583Z,2156.00
2018-08-13T07:16:11.572Z,2284.00
2018-08-13T07:17:11.566Z,2544.00
2018-08-13T07:18:11.531Z,2964.00
2018-08-13T07:19:11.520Z,3436.00
2018-08-13T07:20:11.501Z,3772.00
2018-08-13T07:21:11.491Z,4104.00
2018-08-13T07:22:11.546Z,4496.00
2018-08-13T07:23:11.464Z,4840.00
2018-08-13T07:24:11.433Z,4868.00
2018-08-13T07:25:11.419Z,4868.00
2018-08-13T07:26:11.399Z,4880.00
2018-08-13T07:27:11.388Z,4860.00
2018-08-13T07:28:11.464Z,4804.00
2018-08-13T07:29:11.356Z,4724.00
2018-08-13T07:30:11.340Z,4636.00
2018-08-13T07:31:11.316Z,4568.00
2018-08-13T07:32:11.304Z,4632.00
2018-08-13T07:33:11.283Z,4744.00
2018-08-13T07:34:11.282Z,4844.00
2018-08-13T07:35:11.256Z,4972.00
2018-08-13T07:36:11.240Z,5124.00
2018-08-13T07:37:11.222Z,5240.00
2018-08-13T07:38:11.224Z,5316.00
2018-08-13T07:39:11.234Z,5340.00
2018-08-13T07:40:11.173Z,5284.00
2018-08-13T07:41:11.157Z,5240.00
2018-08-13T07:42:11.139Z,5300.00
2018-08-13T07:43:11.127Z,5332.00
2018-08-13T07:44:11.104Z,5388.00
2018-08-13T07:45:11.112Z,5456.00
2018-08-13T07:46:11.081Z,5484.00
2018-08-13T07:47:11.064Z,5508.00
2018-08-13T07:48:11.043Z,5568.00
2018-08-13T07:49:11.032Z,5624.00
2018-08-13T07:50:11.025Z,5440.00
2018-08-13T07:51:11.003Z,4900.00
2018-08-13T07:52:10.982Z,4352.00
2018-08-13T07:53:10.965Z,4272.00
2018-08-13T07:54:10.946Z,4552.00
2018-08-13T07:55:10.944Z,5068.00
2018-08-13T07:56:10.919Z,5936.00
2018-08-13T07:57:10.901Z,6468.00
2018-08-13T07:58:10.884Z,6824.00
2018-08-13T07:59:10.864Z,7176.00
2018-08-13T08:00:10.865Z,7512.00
2018-08-13T08:01:10.838Z,7864.00
2018-08-13T08:02:10.822Z,8148.00
2018-08-13T08:03:10.804Z,8296.00
2018-08-13T08:04:10.788Z,8280.00
2018-08-13T08:05:10.789Z,8136.00
2018-08-13T08:06:10.755Z,7880.00
2018-08-13T08:07:10.785Z,7532.00
2018-08-13T08:08:10.727Z,7128.00
2018-08-13T08:09:10.736Z,6672.00
2018-08-13T08:10:10.691Z,6068.00
2018-08-13T08:11:10.693Z,5328.00
2018-08-13T08:12:10.663Z,4672.00
2018-08-13T08:13:10.647Z,4304.00
2018-08-13T08:14:10.629Z,4244.00
2018-08-13T08:15:10.618Z,4436.00
2018-08-13T08:16:10.622Z,4572.00
2018-08-13T08:17:10.585Z,4572.00
2018-08-13T08:18:22.003Z,4552.00
2018-08-13T08:19:10.549Z,4516.00
2018-08-13T08:20:10.538Z,4340.00
2018-08-13T08:21:10.520Z,4044.00
2018-08-13T08:22:10.526Z,3584.00
2018-08-13T08:23:10.492Z,3044.00
2018-08-13T08:24:10.479Z,2656.00
2018-08-13T08:25:10.458Z,2768.00
2018-08-13T08:26:10.442Z,3356.00
2018-08-13T08:27:10.429Z,4332.00
2018-08-13T08:28:10.418Z,5508.00
2018-08-13T08:29:10.421Z,6292.00
2018-08-13T08:30:10.381Z,5816.00
2018-08-13T08:31:10.363Z,4760.00
2018-08-13T08:32:10.342Z,4484.00
2018-08-13T08:33:10.368Z,4596.00
2018-08-13T08:34:10.317Z,4924.00
2018-08-13T08:35:10.308Z,5332.00
2018-08-13T08:36:10.283Z,5664.00
2018-08-13T08:37:10.270Z,5996.00
2018-08-13T08:38:10.252Z,6664.00
2018-08-13T08:39:10.250Z,7564.00
2018-08-13T08:40:10.228Z,7060.00
2018-08-13T08:41:20.519Z,5548.00
2018-08-13T08:42:10.436Z,4652.00
2018-08-13T08:43:10.231Z,4520.00
2018-08-13T08:44:11.540Z,5088.00
2018-08-13T08:45:10.151Z,5832.00
2018-08-13T08:46:10.137Z,6036.00
2018-08-13T08:47:10.116Z,5472.00
2018-08-13T08:48:10.099Z,4800.00
2018-08-13T08:49:10.260Z,4192.00
2018-08-13T08:50:10.090Z,3912.00
2018-08-13T08:51:10.051Z,3908.00
2018-08-13T08:52:10.038Z,3748.00
2018-08-13T08:53:10.021Z,3480.00
2018-08-13T08:54:10.002Z,3228.00
2018-08-13T08:55:10.009Z,3176.00
2018-08-13T08:56:09.974Z,3236.00
2018-08-13T08:57:09.964Z,3272.00
2018-08-13T08:58:09.940Z,3180.00
2018-08-13T08:59:09.938Z,3020.00
2018-08-13T09:00:09.915Z,2812.00
2018-08-13T09:01:10.045Z,2512.00
2018-08-13T09:02:09.905Z,2140.00
2018-08-13T09:03:09.883Z,1868.00
2018-08-13T09:04:09.861Z,1832.00
2018-08-13T09:05:09.985Z,1836.00
2018-08-13T09:06:09.923Z,1928.00
2018-08-13T09:07:09.824Z,2020.00
2018-08-13T09:08:09.798Z,2200.00
2018-08-13T09:09:09.808Z,2176.00
2018-08-13T09:10:09.765Z,2080.00
2018-08-13T09:11:09.769Z,2056.00
2018-08-13T09:12:09.731Z,2092.00
2018-08-13T09:13:09.714Z,2096.00
2018-08-13T09:14:09.972Z,2104.00
2018-08-13T09:15:09.946Z,2180.00
2018-08-13T09:16:09.705Z,2360.00
2018-08-13T09:17:09.656Z,2712.00
2018-08-13T09:18:09.654Z,3168.00
2018-08-13T09:19:09.691Z,3820.00
2018-08-13T09:20:09.606Z,4908.00
2018-08-13T09:21:09.632Z,6156.00
2018-08-13T09:22:09.588Z,7116.00
2018-08-13T09:23:09.566Z,7768.00
2018-08-13T09:24:09.554Z,8080.00
2018-08-13T09:25:09.758Z,7808.00
2018-08-13T09:26:09.535Z,7272.00
2018-08-13T09:27:09.499Z,6904.00
2018-08-13T09:28:09.544Z,6776.00
2018-08-13T09:29:09.476Z,6712.00
2018-08-13T09:30:09.451Z,6856.00
2018-08-13T09:31:09.463Z,7208.00
2018-08-13T09:32:09.516Z,7308.00
2018-08-13T09:33:09.413Z,7204.00
2018-08-13T09:34:09.394Z,7264.00
2018-08-13T09:35:09.389Z,7864.00
2018-08-13T09:36:09.440Z,8500.00
2018-08-13T09:37:09.363Z,8980.00
2018-08-13T09:38:09.344Z,9508.00
2018-08-13T09:39:09.327Z,10220.00
2018-08-13T09:40:09.314Z,10428.00
2018-08-13T09:41:09.308Z,10500.00
2018-08-13T09:42:09.288Z,10540.00
2018-08-13T09:43:09.275Z,10200.00
2018-08-13T09:44:09.309Z,9732.00
2018-08-13T09:45:09.234Z,9360.00
2018-08-13T09:46:09.229Z,9264.00
2018-08-13T09:47:09.211Z,9436.00
2018-08-13T09:48:09.251Z,9628.00
2018-08-13T09:49:09.177Z,9996.00
2018-08-13T09:50:09.167Z,10044.00
2018-08-13T09:51:09.186Z,9648.00
2018-08-13T09:52:09.160Z,9028.00
2018-08-13T09:53:09.129Z,8760.00
2018-08-13T09:54:09.113Z,7924.00
2018-08-13T09:55:09.095Z,7372.00
2018-08-13T09:56:18.556Z,7260.00
2018-08-13T09:57:19.106Z,7264.00
2018-08-13T09:58:19.116Z,7416.00
2018-08-13T09:59:09.024Z,7612.00
2018-08-13T10:00:19.170Z,7672.00
2018-08-13T10:01:17.164Z,7384.00
2018-08-13T10:02:20.186Z,7228.00
2018-08-13T10:03:08.968Z,7420.00
2018-08-13T10:04:08.949Z,7640.00
2018-08-13T10:05:09.014Z,7844.00
2018-08-13T10:06:08.996Z,7744.00
2018-08-13T10:07:08.919Z,7204.00
2018-08-13T10:08:08.911Z,6600.00
2018-08-13T10:09:08.895Z,6180.00
2018-08-13T10:10:08.870Z,5808.00
2018-08-13T10:11:08.844Z,5648.00
2018-08-13T10:12:08.834Z,5588.00
2018-08-13T10:13:08.819Z,5664.00
2018-08-13T10:14:08.827Z,5808.00
2018-08-13T10:15:08.920Z,5980.00
2018-08-13T10:16:08.771Z,6224.00
2018-08-13T10:17:08.795Z,6544.00
2018-08-13T10:18:08.744Z,6824.00
2018-08-13T10:19:08.962Z,7132.00
2018-08-13T10:20:08.719Z,7856.00
2018-08-13T10:21:08.702Z,8584.00
2018-08-13T10:22:08.697Z,9108.00
2018-08-13T10:23:08.676Z,9416.00
2018-08-13T10:24:08.664Z,9780.00
2018-08-13T10:25:08.661Z,9840.00
2018-08-13T10:26:08.956Z,9436.00
2018-08-13T10:27:08.617Z,8416.00
2018-08-13T10:28:08.601Z,7352.00
2018-08-13T10:29:18.712Z,6516.00
2018-08-13T10:30:08.611Z,5920.00
2018-08-13T10:31:08.554Z,5836.00
2018-08-13T10:32:08.542Z,6496.00
2018-08-13T10:33:08.528Z,7880.00
2018-08-13T10:34:08.505Z,9432.00
2018-08-13T10:35:08.494Z,11420.00
2018-08-13T10:36:08.500Z,13364.00
2018-08-13T10:37:08.469Z,14356.00
2018-08-13T10:38:08.450Z,13136.00
2018-08-13T10:39:08.440Z,11720.00
2018-08-13T10:40:08.435Z,12716.00
2018-08-13T10:41:08.416Z,14512.00
2018-08-13T10:42:08.393Z,16668.00
2018-08-13T10:43:08.380Z,19296.00
2018-08-13T10:44:08.365Z,21440.00
2018-08-13T10:45:08.776Z,22048.00
2018-08-13T10:46:08.338Z,21504.00
2018-08-13T10:47:08.383Z,21568.00
2018-08-13T10:48:08.347Z,22464.00
2018-08-13T10:49:08.296Z,23136.00
2018-08-13T10:50:08.303Z,22976.00
2018-08-13T10:51:08.527Z,22560.00
2018-08-13T10:52:08.262Z,21184.00
2018-08-13T10:53:08.253Z,20128.00
2018-08-13T10:54:08.263Z,19040.00
2018-08-13T10:55:10.233Z,17952.00
2018-08-13T10:56:08.269Z,14764.00
2018-08-13T10:57:08.196Z,13224.00
2018-08-13T10:58:08.188Z,12372.00
2018-08-13T10:59:08.163Z,13008.00
2018-08-13T11:00:08.149Z,13200.00
2018-08-13T11:01:08.217Z,12924.00
2018-08-13T11:02:08.127Z,12632.00
2018-08-13T11:03:08.156Z,12216.00
2018-08-13T11:04:08.094Z,11496.00
2018-08-13T11:05:08.086Z,10692.00
2018-08-13T11:06:08.092Z,9920.00
2018-08-13T11:07:08.049Z,9164.00
2018-08-13T11:08:08.067Z,9064.00
2018-08-13T11:09:08.042Z,9948.00
2018-08-13T11:10:08.117Z,11572.00
2018-08-13T11:11:07.997Z,13288.00
2018-08-13T11:12:07.998Z,14896.00
2018-08-13T11:13:07.970Z,15624.00
2018-08-13T11:14:07.956Z,14864.00
2018-08-13T11:15:07.989Z,13204.00
2018-08-13T11:16:07.930Z,11348.00
2018-08-13T11:17:07.954Z,10812.00
2018-08-13T11:18:07.911Z,11928.00
2018-08-13T11:19:07.885Z,14600.00
2018-08-13T11:20:07.879Z,18688.00
2018-08-13T11:21:07.871Z,22240.00
2018-08-13T11:22:07.853Z,24512.00
2018-08-13T11:23:07.843Z,25440.00
2018-08-13T11:24:07.823Z,25664.00
2018-08-13T11:25:07.836Z,25376.00
2018-08-13T11:26:07.807Z,26528.00
2018-08-13T11:27:07.811Z,26528.00
2018-08-13T11:28:07.808Z,26784.00
2018-08-13T11:29:07.774Z,25248.00
2018-08-13T11:30:07.784Z,24032.00
2018-08-13T11:31:07.824Z,23776.00
2018-08-13T11:32:07.761Z,21280.00
2018-08-13T11:33:07.730Z,21088.00
2018-08-13T11:34:07.725Z,21472.00
2018-08-13T11:35:07.703Z,23360.00
2018-08-13T11:36:07.683Z,22592.00
2018-08-13T11:37:07.693Z,22400.00
2018-08-13T11:38:07.666Z,23104.00
2018-08-13T11:39:07.671Z,22752.00
2018-08-13T11:40:07.632Z,22080.00
2018-08-13T11:41:07.662Z,20864.00
2018-08-13T11:42:07.607Z,19872.00
2018-08-13T11:43:07.595Z,19008.00
2018-08-13T11:44:07.617Z,19232.00
2018-08-13T11:45:07.564Z,19456.00
2018-08-13T11:46:07.563Z,17824.00
2018-08-13T11:47:07.554Z,16912.00
2018-08-13T11:48:07.544Z,18592.00
2018-08-13T11:49:07.530Z,17376.00
2018-08-13T11:50:07.564Z,16096.00
2018-08-13T11:51:07.502Z,14488.00
2018-08-13T11:52:07.480Z,13788.00
2018-08-13T11:53:07.477Z,15580.00
2018-08-13T11:54:07.449Z,19584.00
2018-08-13T11:55:07.484Z,24032.00
2018-08-13T11:56:07.475Z,23584.00
2018-08-13T11:57:07.471Z,21856.00
2018-08-13T11:58:07.412Z,20480.00
2018-08-13T11:59:07.406Z,20128.00
2018-08-13T12:00:07.392Z,20896.00
2018-08-13T12:01:07.495Z,22048.00
2018-08-13T12:02:07.439Z,23552.00
2018-08-13T12:03:07.403Z,25664.00
2018-08-13T12:04:07.327Z,27616.00
2018-08-13T12:05:07.329Z,26464.00
2018-08-13T12:06:07.356Z,25696.00
2018-08-13T12:07:07.300Z,25184.00
2018-08-13T12:08:07.291Z,24512.00
2018-08-13T12:09:07.300Z,22976.00
2018-08-13T12:10:07.263Z,21408.00
2018-08-13T12:11:07.260Z,19968.00
2018-08-13T12:12:07.336Z,19328.00
2018-08-13T12:13:07.241Z,19072.00
2018-08-13T12:14:07.312Z,18688.00
2018-08-13T12:15:07.223Z,19072.00
2018-08-13T12:16:07.204Z,19456.00
2018-08-13T12:17:07.239Z,18624.00
2018-08-13T12:18:07.198Z,21952.00
2018-08-13T12:19:07.190Z,24192.00
2018-08-13T12:20:07.158Z,25824.00
2018-08-13T12:21:07.167Z,26304.00
2018-08-13T12:22:07.155Z,24192.00
2018-08-13T12:23:07.161Z,19040.00
2018-08-13T12:24:07.130Z,19392.00
2018-08-13T12:25:07.118Z,21216.00
2018-08-13T12:26:07.122Z,20864.00
2018-08-13T12:27:07.119Z,21216.00